Time;durP1;ratioP1;P1;durP2;ratioP2;P2;SDS_P1;SDS_P2;PMS_P1;PMS_P2;Temp;Humidity;BMP_temperature;BMP_pressure;BME280_temperature;BME280_humidity;BME280_pressure;Samples;Min_cycle;Max_cycle;Signal;HPM_P1;HPM_P2
2023/07/27 00:00:18;;;;;;;7.93;7.32;;;;;;;;;;5029021;28;20203;-67
2023/07/27 00:02:45;;;;;;;8.13;7.53;;;;;;;;;;5028068;28;20199;-65
2023/07/27 00:05:14;;;;;;;8.60;7.20;;;;;;;;;;5028189;28;20234;-68
2023/07/27 00:07:41;;;;;;;56.28;43.03;;;;;;;22.70;nan;94503.69;5027321;28;20196;-66
2023/07/27 00:10:07;;;;;;;8.40;7.80;;;;;;;;;;5027498;28;20258;-67
2023/07/27 00:12:34;;;;;;;6.70;6.30;;;;;;;;;;5026661;28;20228;-68
2023/07/27 00:15:00;;;;;;;6.15;5.75;;;;;;;;;;5027759;28;20200;-68
2023/07/27 00:17:27;;;;;;;5.80;5.40;;;;;;;;;;5026953;28;20254;-66
2023/07/27 00:19:53;;;;;;;4.85;4.65;;;;;;;;;;5027399;28;20242;-69
2023/07/27 00:22:21;;;;;;;4.63;4.20;;;;;;;;;;5026848;28;20203;-67
2023/07/27 00:24:47;;;;;;;4.28;4.00;;;;;;;;;;5026449;28;20596;-68
2023/07/27 00:27:14;;;;;;;3.70;3.50;;;;;;;;;;5027243;28;20740;-67
2023/07/27 00:29:40;;;;;;;4.22;3.78;;;;;;;;;;5027181;28;20236;-66
2023/07/27 00:32:07;;;;;;;4.75;3.65;;;;;;;;;;5025880;28;20230;-67
2023/07/27 00:34:34;;;;;;;3.30;3.10;;;;;;;;;;5026334;28;20200;-67
2023/07/27 00:37:00;;;;;;;5.28;3.40;;;;;;;;;;5028572;28;20204;-67
2023/07/27 00:39:28;;;;;;;3.75;3.53;;;;;;;;;;5028427;28;20227;-69
2023/07/27 00:41:54;;;;;;;4.40;3.95;;;;;;;;;;5028120;28;20200;-67
2023/07/27 00:44:21;;;;;;;4.32;4.03;;;;;;;;;;5028348;28;20211;-67
2023/07/27 00:46:47;;;;;;;3.58;3.03;;;;;;;;;;5027257;28;20199;-68
2023/07/27 00:49:14;;;;;;;3.45;3.25;;;;;;;21.88;nan;94511.78;5027330;28;20195;-67
2023/07/27 00:51:42;;;;;;;3.05;2.90;;;;;;;;;;5028541;28;20650;-67
2023/07/27 00:54:10;;;;;;;3.20;3.00;;;;;;;;;;5028294;28;20231;-68
2023/07/27 00:56:38;;;;;;;2.90;2.80;;;;;;;;;;5028485;28;20297;-68
2023/07/27 00:59:05;;;;;;;2.63;2.53;;;;;;;;;;5027824;28;20207;-67
2023/07/27 01:01:31;;;;;;;3.92;2.58;;;;;;;;;;5028418;28;20199;-67
2023/07/27 01:03:58;;;;;;;2.97;2.42;;;;;;;;;;5028040;28;20235;-69
2023/07/27 01:06:25;;;;;;;2.95;2.78;;;;;;;;;;5026118;28;20641;-67
2023/07/27 01:08:52;;;;;;;2.95;2.75;;;;;;;;;;5026858;28;20212;-69
2023/07/27 01:11:22;;;;;;;2.25;2.05;;;;;;;;;;5026198;28;20251;-66
2023/07/27 01:13:52;;;;;;;2.60;1.95;;;;;;;;;;5027092;28;20297;-67
2023/07/27 01:16:20;;;;;;;21.60;15.95;;;;;;;;;;5025433;28;20300;-67
2023/07/27 01:18:51;;;;;;;7.03;6.15;;;;;;;;;;5026773;28;20204;-66
2023/07/27 01:21:21;;;;;;;2.67;2.58;;;;;;;;;;5026928;28;20199;-67
2023/07/27 01:24:07;;;;;;;2.08;1.98;;;;;;;;;;5027254;28;20215;-67
2023/07/27 01:26:43;;;;;;;2.63;2.42;;;;;;;;;;5026854;28;20253;-67
2023/07/27 01:29:18;;;;;;;3.15;2.60;;;;;;;;;;5026466;28;21585;-67
2023/07/27 01:31:47;;;;;;;2.22;2.13;;;;;;;;;;5027071;28;20234;-67
2023/07/27 01:34:18;;;;;;;2.45;2.35;;;;;;;;;;5026694;28;20238;-66
2023/07/27 01:36:47;;;;;;;3.10;2.20;;;;;;;;;;5027561;28;20514;-67
2023/07/27 01:39:14;;;;;;;2.03;1.92;;;;;;;;;;5026873;28;20215;-67
2023/07/27 01:41:42;;;;;;;2.60;2.40;;;;;;;;;;5026816;28;20210;-69
2023/07/27 01:44:10;;;;;;;1.95;1.85;;;;;;;;;;5025223;28;20230;-67
2023/07/27 01:46:37;;;;;;;2.20;2.03;;;;;;;;;;5024714;28;20265;-66
2023/07/27 01:49:06;;;;;;;2.10;2.00;;;;;;;;;;5025036;28;20276;-66
2023/07/27 01:51:33;;;;;;;2.03;1.85;;;;;;;;;;5025571;28;20234;-68
2023/07/27 01:54:00;;;;;;;1.92;1.83;;;;;;;;;;5025141;28;20277;-68
2023/07/27 01:56:27;;;;;;;2.25;2.15;;;;;;;;;;5023474;28;20218;-66
2023/07/27 01:58:54;;;;;;;2.17;1.98;;;;;;;;;;5025624;28;20293;-67
2023/07/27 02:01:21;;;;;;;2.40;1.92;;;;;;;;;;5025385;28;20285;-68
2023/07/27 02:03:47;;;;;;;2.25;2.13;;;;;;;;;;5025378;28;20615;-67
2023/07/27 02:06:15;;;;;;;2.58;2.47;;;;;;;;;;5026047;28;20285;-66
2023/07/27 02:08:42;;;;;;;2.55;2.45;;;;;;;;;;5025112;28;20639;-68
2023/07/27 02:11:11;;;;;;;2.78;2.65;;;;;;;21.45;nan;94499.13;5025502;28;20797;-68
2023/07/27 02:13:42;;;;;;;5.97;3.05;;;;;;;;;;5025657;28;20258;-67
2023/07/27 02:16:13;;;;;;;3.13;3.00;;;;;;;;;;5026857;28;20204;-68
2023/07/27 02:18:40;;;;;;;7.47;3.50;;;;;;;;;;5025865;28;20203;-66
2023/07/27 02:21:08;;;;;;;3.15;3.05;;;;;;;;;;5026300;28;20227;-68
2023/07/27 02:23:36;;;;;;;3.65;3.53;;;;;;;;;;5026755;28;20487;-67
2023/07/27 02:26:03;;;;;;;4.07;3.88;;;;;;;;;;5026744;28;20224;-66
2023/07/27 02:28:29;;;;;;;4.68;4.13;;;;;;;;;;5026849;28;20210;-68
2023/07/27 02:30:56;;;;;;;4.53;4.30;;;;;;;;;;5026908;28;20207;-66
2023/07/27 02:33:22;;;;;;;4.10;3.90;;;;;;;;;;5026041;28;20251;-65
2023/07/27 02:35:48;;;;;;;4.88;4.55;;;;;;;;;;5026573;28;20200;-67
2023/07/27 02:38:15;;;;;;;4.55;4.25;;;;;;;;;;5027110;28;20354;-66
2023/07/27 02:40:43;;;;;;;5.38;5.18;;;;;;;;;;5026744;28;20212;-67
2023/07/27 02:43:09;;;;;;;5.45;5.15;;;;;;;;;;5025726;28;20291;-66
2023/07/27 02:45:36;;;;;;;5.45;5.25;;;;;;;;;;5026673;28;20200;-66
2023/07/27 02:48:02;;;;;;;4.57;4.30;;;;;;;;;;5026613;28;20255;-66
2023/07/27 02:50:29;;;;;;;5.45;4.93;;;;;;;;;;5026075;28;20208;-66
2023/07/27 02:52:55;;;;;;;5.72;5.43;;;;;;;;;;5027134;28;20263;-66
2023/07/27 02:55:21;;;;;;;5.20;4.80;;;;;;;;;;5028098;28;20264;-65
2023/07/27 02:57:49;;;;;;;5.90;5.40;;;;;;;;;;5030828;28;20239;-66
2023/07/27 03:00:16;;;;;;;5.07;4.70;;;;;;;;;;5029688;28;20204;-66
2023/07/27 03:02:42;;;;;;;4.72;4.53;;;;;;;;;;5030569;28;20211;-67
2023/07/27 03:05:09;;;;;;;5.35;4.90;;;;;;;;;;5030475;28;20206;-66
2023/07/27 03:07:36;;;;;;;5.00;4.72;;;;;;;;;;5031294;28;20226;-67
2023/07/27 03:10:02;;;;;;;6.35;5.32;;;;;;;;;;5029535;28;20199;-67
2023/07/27 03:12:29;;;;;;;5.10;4.65;;;;;;;;;;5030859;28;20223;-67
2023/07/27 03:14:56;;;;;;;5.63;5.32;;;;;;;;;;5030303;28;20203;-65
2023/07/27 03:17:23;;;;;;;5.18;4.95;;;;;;;;;;5031007;28;20334;-65
2023/07/27 03:19:50;;;;;;;5.53;5.20;;;;;;;;;;5030046;28;20200;-67
2023/07/27 03:22:16;;;;;;;5.57;5.18;;;;;;;;;;5030587;28;20196;-66
2023/07/27 03:24:43;;;;;;;5.25;4.75;;;;;;;;;;5030096;28;20254;-66
2023/07/27 03:27:09;;;;;;;5.45;5.05;;;;;;;;;;5029363;28;20250;-67
2023/07/27 03:29:36;;;;;;;5.03;4.53;;;;;;;;;;5030293;28;20208;-65
2023/07/27 03:32:04;;;;;;;5.35;4.93;;;;;;;;;;5030269;28;20311;-66
2023/07/27 03:34:30;;;;;;;4.90;4.60;;;;;;;;;;5029772;28;20293;-67
2023/07/27 03:36:56;;;;;;;4.47;4.18;;;;;;;;;;5030544;28;20231;-65
2023/07/27 03:39:23;;;;;;;4.10;3.78;;;;;;;;;;5029659;28;20199;-66
2023/07/27 03:41:49;;;;;;;5.00;4.13;;;;;;;;;;5028334;28;20203;-66
2023/07/27 03:44:16;;;;;;;4.55;4.15;;;;;;;;;;5028360;28;20265;-66
2023/07/27 03:46:42;;;;;;;4.10;3.80;;;;;;;;;;5028771;28;20722;-67
2023/07/27 03:49:10;;;;;;;4.35;4.05;;;;;;;;;;5028140;28;20295;-65
2023/07/27 03:51:37;;;;;;;3.67;3.58;;;;;;;;;;5027911;28;20258;-65
2023/07/27 03:54:03;;;;;;;3.75;3.53;;;;;;;;;;5028244;28;20638;-66
2023/07/27 03:56:29;;;;;;;3.58;3.38;;;;;;;;;;5027340;28;20240;-66
2023/07/27 03:58:56;;;;;;;3.75;3.55;;;;;;;;;;5029590;28;20200;-65
2023/07/27 04:01:22;;;;;;;3.25;3.10;;;;;;;;;;5029495;28;20257;-67
2023/07/27 04:03:49;;;;;;;3.20;3.10;;;;;;;;;;5027654;28;20223;-66
2023/07/27 04:06:16;;;;;;;4.68;4.47;;;;;;;;;;5027129;28;20673;-66
2023/07/27 04:08:43;;;;;;;7.00;6.38;;;;;;;;;;5028407;28;20301;-66
2023/07/27 04:11:09;;;;;;;3.22;3.03;;;;;;;;;;5027646;28;20685;-64
2023/07/27 04:13:37;;;;;;;3.30;3.10;;;;;;;;;;5027686;28;20267;-66
2023/07/27 04:16:04;;;;;;;3.30;3.20;;;;;;;;;;5027813;28;20215;-66
2023/07/27 04:18:31;;;;;;;3.25;2.95;;;;;;;;;;5029470;28;20223;-67
2023/07/27 04:20:57;;;;;;;5.13;2.70;;;;;;;;;;5028357;28;20200;-66
2023/07/27 04:23:25;;;;;;;5.85;5.30;;;;;;;;;;5029715;28;20690;-67
2023/07/27 04:25:51;;;;;;;4.70;4.40;;;;;;;;;;5029367;28;20203;-68
2023/07/27 04:28:18;;;;;;;2.75;2.50;;;;;;;;;;5029304;28;20208;-67
2023/07/27 04:30:44;;;;;;;2.15;2.05;;;;;;;;;;5028985;28;20208;-67
2023/07/27 04:33:11;;;;;;;2.33;2.15;;;;;;;;;;5029749;28;20318;-67
2023/07/27 04:35:37;;;;;;;2.58;2.33;;;;;;;;;;5028526;28;20231;-67
2023/07/27 04:38:04;;;;;;;4.47;2.40;;;;;;;;;;5029315;28;20664;-66
2023/07/27 04:40:32;;;;;;;2.53;2.42;;;;;;;;;;5028953;28;20678;-66
2023/07/27 04:42:58;;;;;;;2.25;2.15;;;;;;;;;;5028775;28;20435;-66
2023/07/27 04:45:24;;;;;;;12.60;10.02;;;;;;;;;;5029038;28;20203;-66
2023/07/27 04:47:51;;;;;;;6.28;5.78;;;;;;;;;;5029094;28;20203;-67
2023/07/27 04:50:17;;;;;;;7.25;6.70;;;;;;;;;;5028606;28;20204;-67
2023/07/27 04:52:44;;;;;;;9.45;8.60;;;;;;;;;;5028855;28;20309;-66
2023/07/27 04:55:10;;;;;;;7.38;4.85;;;;;;;;;;5029102;28;20203;-66
2023/07/27 04:57:38;;;;;;;4.18;3.88;;;;;;;;;;5029050;28;20257;-68
2023/07/27 05:00:05;;;;;;;14.23;12.55;;;;;;;;;;5028563;28;20748;-67
2023/07/27 05:02:32;;;;;;;5.53;5.22;;;;;;;;;;5028926;28;20211;-66
2023/07/27 05:04:58;;;;;;;7.20;6.60;;;;;;;;;;5027458;28;20227;-66
2023/07/27 05:07:24;;;;;;;3.97;2.90;;;;;;;;;;5028725;28;20270;-68
2023/07/27 05:09:51;;;;;;;3.05;2.40;;;;;;;;;;5028581;28;20238;-66
2023/07/27 05:12:17;;;;;;;4.25;2.40;;;;;;;;;;5028738;28;20237;-68
2023/07/27 05:14:45;;;;;;;2.60;2.40;;;;;;;;;;5027374;28;20208;-65
2023/07/27 05:17:12;;;;;;;2.40;2.30;;;;;;;;;;5028546;28;20207;-66
2023/07/27 05:19:38;;;;;;;2.50;2.30;;;;;;;;;;5028024;28;20216;-68
2023/07/27 05:22:05;;;;;;;2.30;2.10;;;;;;;;;;5028415;28;20232;-68
2023/07/27 05:24:31;;;;;;;2.10;1.90;;;;;;;;;;5027812;28;20628;-65
2023/07/27 05:26:58;;;;;;;2.65;2.55;;;;;;;;;;5028547;28;20215;-65
2023/07/27 05:29:24;;;;;;;2.42;2.33;;;;;;;;;;5027859;28;20208;-66
2023/07/27 05:31:52;;;;;;;2.40;2.20;;;;;;;;;;5028075;28;20732;-67
2023/07/27 05:34:18;;;;;;;2.63;2.03;;;;;;;;;;5028226;28;20277;-66
2023/07/27 05:36:45;;;;;;;2.80;2.63;;;;;;;;;;5027901;28;20200;-66
2023/07/27 05:39:11;;;;;;;3.17;2.97;;;;;;;;;;5027036;28;20704;-67
2023/07/27 05:41:38;;;;;;;4.30;3.53;;;;;;;;;;5026517;28;20203;-66
2023/07/27 05:44:04;;;;;;;3.33;3.10;;;;;;;;;;5025819;28;20203;-66
2023/07/27 05:46:31;;;;;;;2.42;2.17;;;;;;;;;;5026140;28;20199;-67
2023/07/27 05:48:59;;;;;;;2.88;2.67;;;;;;;;;;5026234;28;20219;-66
2023/07/27 05:51:25;;;;;;;5.72;2.60;;;;;;;;;;5025838;28;20254;-67
2023/07/27 05:53:52;;;;;;;1.88;1.88;;;;;;;;;;5026014;28;20309;-66
2023/07/27 05:56:18;;;;;;;2.22;2.00;;;;;;;;;;5025929;28;20721;-65
2023/07/27 05:58:45;;;;;;;2.42;1.77;;;;;;;;;;5026913;28;20200;-69
2023/07/27 06:01:11;;;;;;;2.00;1.90;;;;;;;;;;5027621;28;20231;-69
2023/07/27 06:03:38;;;;;;;3.35;1.92;;;;;;;;;;5027609;28;20227;-67
2023/07/27 06:06:06;;;;;;;2.45;2.03;;;;;;;;;;5027633;28;20763;-67
2023/07/27 06:08:33;;;;;;;1.95;1.95;;;;;;;;;;5027706;28;20239;-67
2023/07/27 06:11:01;;;;;;;3.00;1.70;;;;;;;;;;5026921;28;20204;-66
2023/07/27 06:13:29;;;;;;;2.65;1.40;;;;;;;;;;5027784;28;20312;-68
2023/07/27 06:15:56;;;;;;;2.33;1.60;;;;;;;;;;5027921;28;20212;-66
2023/07/27 06:18:22;;;;;;;1.10;1.10;;;;;;;;;;5027797;28;20630;-67
2023/07/27 06:20:49;;;;;;;1.58;1.42;;;;;;;;;;5027498;28;20208;-69
2023/07/27 06:23:17;;;;;;;5.68;1.40;;;;;;;37.47;nan;94822.44;5027603;28;20670;-68
2023/07/27 06:25:43;;;;;;;1.27;1.02;;;;;;;;;;5027460;28;20203;-67
2023/07/27 06:28:10;;;;;;;2.05;1.10;;;;;;;;;;5027693;28;20238;-69
2023/07/27 06:30:37;;;;;;;1.67;1.08;;;;;;;40.90;nan;94812.47;5030772;28;20231;-69
2023/07/27 06:33:04;;;;;;;3.30;1.20;;;;;;;41.08;nan;94820.19;5031743;28;20223;-69
2023/07/27 06:35:30;;;;;;;1.25;1.25;;;;;;;42.19;nan;94827.88;5031834;28;20217;-68
2023/07/27 06:37:57;;;;;;;1.25;1.25;;;;;;;42.65;nan;94821.06;5031515;28;20203;-68
2023/07/27 06:40:25;;;;;;;1.15;1.05;;;;;;;43.39;nan;94820.97;5031448;28;20606;-68
2023/07/27 06:42:52;;;;;;;1.60;1.38;;;;;;;43.99;nan;94824.94;5031506;28;20231;-69
2023/07/27 06:45:19;;;;;;;1.25;1.15;;;;;;;44.21;nan;94828.19;5031018;28;20731;-69
2023/07/27 06:47:45;;;;;;;2.42;1.20;;;;;;;;;;5031553;28;20234;-69
2023/07/27 06:50:12;;;;;;;2.20;1.00;;;;;;;43.75;nan;94813.91;5031809;28;20235;-69
2023/07/27 06:52:39;;;;;;;2.85;1.27;;;;;;;44.01;nan;94802.19;5031033;28;20226;-68
2023/07/27 06:55:07;;;;;;;2.15;1.35;;;;;;;44.23;nan;94804.63;5031480;28;20208;-68
2023/07/27 06:57:35;;;;;;;1.00;1.00;;;;;;;44.39;nan;94789.34;5030183;28;20199;-68
2023/07/27 07:00:01;;;;;;;1.40;1.10;;;;;;;44.62;nan;94785.31;5031313;28;20261;-67
2023/07/27 07:02:28;;;;;;;1.27;1.20;;;;;;;44.60;nan;94776.75;5030331;28;20207;-69
2023/07/27 07:04:55;;;;;;;2.25;1.50;;;;;;;44.52;nan;94780.00;5030646;28;20282;-68
2023/07/27 07:07:22;;;;;;;3.72;2.20;;;;;;;44.11;nan;94790.69;5031158;28;20231;-68
2023/07/27 07:09:49;;;;;;;3.08;1.40;;;;;;;43.86;nan;94787.94;5029799;28;20200;-69
2023/07/27 07:12:16;;;;;;;3.58;1.65;;;;;;;44.67;nan;94804.09;5031056;28;20212;-68
2023/07/27 07:14:44;;;;;;;1.90;1.10;;;;;;;44.69;nan;94799.25;5030616;28;20314;-69
2023/07/27 07:17:11;;;;;;;1.10;1.10;;;;;;;44.40;nan;94793.66;5030781;28;20668;-68
2023/07/27 07:19:38;;;;;;;1.30;1.30;;;;;;;44.17;nan;94788.81;5030561;28;20285;-68
2023/07/27 07:22:05;;;;;;;2.35;1.70;;;;;;;44.48;nan;94795.81;5030308;28;20234;-67
2023/07/27 07:24:32;;;;;;;3.80;1.35;;;;;;;;;;5030683;28;20196;-68
2023/07/27 07:26:59;;;;;;;4.22;1.20;;;;;;;43.90;nan;94799.72;5030216;28;20243;-68
2023/07/27 07:29:26;;;;;;;4.82;1.23;;;;;;;43.73;nan;94790.06;5031611;28;20286;-69
2023/07/27 07:31:54;;;;;;;1.50;1.40;;;;;;;43.53;nan;94795.34;5030344;28;20586;-67
2023/07/27 07:34:21;;;;;;;1.63;1.52;;;;;;;43.06;nan;94800.75;5030372;28;20259;-66
2023/07/27 07:36:48;;;;;;;1.20;1.20;;;;;;;43.05;nan;94788.44;5031070;28;20239;-68
2023/07/27 07:39:14;;;;;;;1.30;1.20;;;;;;;;;;5028803;28;20208;-67
2023/07/27 07:41:41;;;;;;;1.30;1.10;;;;;;;41.97;nan;94799.34;5028710;28;20231;-68
2023/07/27 07:44:07;;;;;;;8.13;1.40;;;;;;;42.14;nan;94793.91;5028471;28;20268;-67
2023/07/27 07:46:34;;;;;;;2.25;1.20;;;;;;;42.63;nan;94797.25;5027700;28;20281;-68
2023/07/27 07:49:02;;;;;;;2.70;1.40;;;;;;;43.17;nan;94790.91;5028413;28;20293;-67
2023/07/27 07:51:29;;;;;;;1.80;1.45;;;;;;;43.22;nan;94783.75;5028396;28;20227;-68
2023/07/27 07:53:55;;;;;;;4.38;1.35;;;;;;;43.49;nan;94788.91;5027988;28;20289;-69
2023/07/27 07:56:23;;;;;;;4.13;1.30;;;;;;;44.13;nan;94796.56;5028343;28;20204;-67
2023/07/27 07:58:49;;;;;;;1.25;1.25;;;;;;;44.19;nan;94803.53;5029814;28;20195;-68
2023/07/27 08:01:16;;;;;;;7.10;1.40;;;;;;;;;;5030030;28;20208;-68
2023/07/27 08:03:43;;;;;;;4.45;1.42;;;;;;;43.91;nan;94802.16;5029636;28;20321;-67
2023/07/27 08:06:13;;;;;;;1.45;1.35;;;;;;;44.13;nan;94801.13;5029570;28;20200;-68
2023/07/27 08:08:39;;;;;;;5.03;1.30;;;;;;;44.02;nan;94792.28;5029551;28;20277;-68
2023/07/27 08:11:06;;;;;;;2.85;1.20;;;;;;;43.57;nan;94801.75;5029743;28;20767;-68
2023/07/27 08:13:34;;;;;;;3.50;1.55;;;;;;;43.15;nan;94799.19;5030074;28;20224;-67
2023/07/27 08:16:03;;;;;;;12.02;1.42;;;;;;;;;;5029490;28;20254;-67
2023/07/27 08:18:31;;;;;;;3.67;1.75;;;;;;;41.65;nan;94892.69;5028627;28;20701;-69
2023/07/27 08:20:59;;;;;;;2.15;1.50;;;;;;;;;;5029547;28;20225;-67
2023/07/27 08:23:28;;;;;;;3.88;1.30;;;;;;;41.74;nan;94795.13;5029736;28;20755;-69
2023/07/27 08:25:55;;;;;;;2.17;1.63;;;;;;;;;;5028166;28;20204;-64
2023/07/27 08:28:22;;;;;;;2.15;1.15;;;;;;;41.33;nan;94811.72;5028175;28;20249;-67
2023/07/27 08:30:49;;;;;;;6.95;1.40;;;;;;;41.39;nan;94808.84;5027875;28;20223;-67
2023/07/27 08:33:16;;;;;;;2.97;1.15;;;;;;;41.47;nan;94796.13;5028893;28;20626;-67
2023/07/27 08:35:43;;;;;;;3.08;1.45;;;;;;;41.78;nan;94806.94;5029066;28;20199;-68
2023/07/27 08:38:09;;;;;;;5.55;1.50;;;;;;;;;;5028813;28;20207;-67
2023/07/27 08:40:37;;;;;;;4.32;1.60;;;;;;;40.91;nan;94806.88;5029331;28;20250;-65
2023/07/27 08:43:05;;;;;;;9.35;3.95;;;;;;;40.95;nan;94802.69;5028339;28;20649;-68
2023/07/27 08:45:32;;;;;;;8.57;3.80;;;;;;;41.27;nan;94799.38;5029326;28;20223;-65
2023/07/27 08:47:59;;;;;;;7.28;3.75;;;;;;;41.73;nan;94804.19;5028441;28;20238;-67
2023/07/27 08:50:27;;;;;;;4.45;2.50;;;;;;;40.81;nan;94816.63;5028435;28;20258;-65
2023/07/27 08:52:53;;;;;;;7.20;4.72;;;;;;;41.22;nan;94807.31;5026131;28;20282;-65
2023/07/27 08:55:21;;;;;;;7.28;3.88;;;;;;;41.13;nan;94814.91;5028906;28;20231;-65
2023/07/27 08:57:49;;;;;;;6.07;3.35;;;;;;;41.22;nan;94807.31;5028031;28;20204;-65
2023/07/27 09:00:16;;;;;;;6.10;3.28;;;;;;;;;;5028298;28;20218;-67
2023/07/27 09:02:43;;;;;;;4.13;2.95;;;;;;;40.48;nan;94806.75;5027484;28;20607;-66
2023/07/27 09:05:12;;;;;;;2.58;2.40;;;;;;;40.00;nan;94800.91;5028563;28;20204;-67
2023/07/27 09:07:39;;;;;;;3.65;2.05;;;;;;;;;;5028858;28;20282;-66
2023/07/27 09:10:08;;;;;;;2.50;2.40;;;;;;;39.85;nan;94805.09;5027113;28;20214;-66
2023/07/27 09:12:35;;;;;;;6.80;2.40;;;;;;;39.97;nan;94804.03;5027668;28;20589;-68
2023/07/27 09:15:07;;;;;;;9.57;2.60;;;;;;;;;;5027417;28;20223;-68
2023/07/27 09:17:34;;;;;;;6.28;1.70;;;;;;;;;;5027110;28;20235;-68
2023/07/27 09:20:01;;;;;;;7.88;2.20;;;;;;;;;;5028076;28;20230;-71
2023/07/27 09:22:28;;;;;;;5.70;1.63;;;;;;;;;;5027541;28;20295;-63
2023/07/27 09:24:57;;;;;;;4.68;2.00;;;;;;;;;;5028314;28;20581;-67
2023/07/27 09:27:23;;;;;;;6.80;6.13;;;;;;;;;;5026492;28;20365;-65
2023/07/27 09:29:57;;;;;;;3.72;3.42;;;;;;;;;;5028248;28;20231;-65
2023/07/27 09:32:25;;;;;;;4.65;2.70;;;;;;;;;;5026613;28;20235;-66
2023/07/27 09:34:56;;;;;;;3.17;2.00;;;;;;;33.66;nan;94769.34;5028207;28;20234;-67
2023/07/27 09:37:23;;;;;;;8.27;2.17;;;;;;;;;;5026778;28;20200;-67
2023/07/27 09:39:51;;;;;;;3.13;2.42;;;;;;;;;;5028372;28;20223;-67
2023/07/27 09:42:17;;;;;;;4.25;2.30;;;;;;;;;;5027406;28;20257;-67
2023/07/27 09:44:48;;;;;;;4.55;1.67;;;;;;;;;;5023783;28;20208;-68
2023/07/27 09:47:18;;;;;;;1.58;1.48;;;;;;;;;;5025922;28;20290;-67
2023/07/27 09:49:46;;;;;;;4.00;2.08;;;;;;;;;;5025605;28;20681;-67
2023/07/27 09:52:13;;;;;;;3.67;2.63;;;;;;;;;;5024232;28;20285;-67
2023/07/27 09:54:39;;;;;;;4.82;1.90;;;;;;;;;;5025282;28;20228;-64
2023/07/27 09:57:06;;;;;;;6.82;1.40;;;;;;;;;;5025747;28;20203;-66
2023/07/27 09:59:33;;;;;;;7.15;1.60;;;;;;;;;;5026173;28;20223;-65
2023/07/27 10:01:59;;;;;;;2.13;1.65;;;;;;;;;;5026918;28;20211;-68
2023/07/27 10:04:26;;;;;;;2.28;1.63;;;;;;;;;;5026891;28;20223;-66
2023/07/27 10:06:53;;;;;;;1.98;1.40;;;;;;;;;;5025986;28;20239;-67
2023/07/27 10:09:21;;;;;;;2.17;1.40;;;;;;;;;;5027264;28;20199;-65
2023/07/27 10:11:55;;;;;;;2.40;1.30;;;;;;;;;;5027354;28;20207;-64
2023/07/27 10:14:24;;;;;;;2.95;1.42;;;;;;;;;;5026116;28;20306;-67
2023/07/27 10:17:00;;;;;;;24.50;15.63;;;;;;;;;;5026455;28;20204;-67
2023/07/27 10:19:27;;;;;;;5.18;4.20;;;;;;;;;;5027428;28;20207;-65
2023/07/27 10:21:55;;;;;;;3.00;2.75;;;;;;;;;;5026401;28;20290;-66
2023/07/27 10:24:23;;;;;;;7.15;3.47;;;;;;;;;;5025814;28;20705;-65
2023/07/27 10:26:51;;;;;;;2.38;2.17;;;;;;;;;;5027175;28;20717;-66
2023/07/27 10:29:18;;;;;;;2.40;1.95;;;;;;;;;;5027136;28;20206;-65
2023/07/27 10:31:45;;;;;;;3.92;1.80;;;;;;;;;;5026095;28;20249;-65
2023/07/27 10:34:15;;;;;;;4.63;2.50;;;;;;;;;;5026893;28;20574;-66
2023/07/27 10:36:52;;;;;;;1.42;1.33;;;;;;;;;;5026591;28;20199;-64
2023/07/27 10:39:26;;;;;;;8.20;1.52;;;;;;;;;;5026097;28;20250;-66
2023/07/27 10:41:59;;;;;;;7.57;1.65;;;;;;;;;;5027011;28;20283;-64
2023/07/27 10:44:26;;;;;;;1.65;1.42;;;;;;;;;;5026241;28;20286;-65
2023/07/27 10:46:55;;;;;;;5.28;1.60;;;;;;;;;;5027235;28;20705;-65
2023/07/27 10:49:22;;;;;;;1.30;1.20;;;;;;;;;;5026446;28;20250;-64
2023/07/27 10:51:49;;;;;;;5.55;1.77;;;;;;;;;;5026812;28;20238;-64
2023/07/27 10:54:16;;;;;;;6.25;1.58;;;;;;;;;;5025946;28;20270;-64
2023/07/27 10:56:44;;;;;;;3.75;1.80;;;;;;;;;;5026639;28;20262;-65
2023/07/27 10:59:12;;;;;;;1.75;1.65;;;;;;;;;;5026324;28;20200;-64
2023/07/27 11:01:39;;;;;;;2.95;1.50;;;;;;;;;;5026652;28;20204;-65
2023/07/27 11:04:05;;;;;;;3.50;1.90;;;;;;;;;;5026530;28;20801;-66
2023/07/27 11:06:40;;;;;;;6.13;2.08;;;;;;;;;;5025871;28;20232;-65
2023/07/27 11:09:10;;;;;;;3.33;2.08;;;;;;;;;;5027360;28;20203;-66
2023/07/27 11:11:36;;;;;;;1.83;1.73;;;;;;;;;;5026970;28;20208;-67
2023/07/27 11:14:06;;;;;;;2.88;1.40;;;;;;;;;;5026777;28;20207;-66
2023/07/27 11:16:32;;;;;;;3.85;1.58;;;;;;;;;;5029252;28;20230;-66
2023/07/27 11:19:00;;;;;;;2.28;1.52;;;;;;;;;;5029666;28;20199;-65
2023/07/27 11:21:27;;;;;;;4.65;2.45;;;;;;;;;;5029478;28;20228;-66
2023/07/27 11:23:53;;;;;;;3.50;1.88;;;;;;;;;;5031247;28;20196;-67
2023/07/27 11:26:20;;;;;;;3.10;2.20;;;;;;;;;;5030140;28;20204;-66
2023/07/27 11:28:47;;;;;;;1.63;1.35;;;;;;;;;;5030437;28;20200;-66
2023/07/27 11:31:16;;;;;;;7.35;2.00;;;;;;;;;;5029880;28;20236;-66
2023/07/27 11:33:42;;;;;;;8.02;2.13;;;;;;;;;;5028937;28;20620;-66
2023/07/27 11:36:09;;;;;;;1.48;1.38;;;;;;;;;;5028661;28;20220;-65
2023/07/27 11:38:36;;;;;;;2.30;2.10;;;;;;;;;;5030566;28;20567;-66
2023/07/27 11:41:03;;;;;;;8.48;1.85;;;;;;;;;;5028622;28;20200;-66
2023/07/27 11:43:29;;;;;;;2.13;1.77;;;;;;;;;;5029361;28;20196;-66
2023/07/27 11:45:56;;;;;;;5.97;1.83;;;;;;;;;;5029170;28;20216;-66
2023/07/27 11:48:27;;;;;;;4.63;2.05;;;;;;;;;;5029714;28;20751;-66
2023/07/27 11:50:54;;;;;;;8.68;2.10;;;;;;;;;;5030115;28;20195;-66
2023/07/27 11:53:22;;;;;;;3.58;1.95;;;;;;;;;;5028680;28;20784;-66
2023/07/27 11:55:49;;;;;;;3.53;3.30;;;;;;;;;;5030226;28;20228;-65
2023/07/27 11:58:15;;;;;;;2.45;2.33;;;;;;;;;;5029562;28;20211;-66
2023/07/27 12:00:46;;;;;;;4.78;1.83;;;;;;;;;;5029913;28;20262;-66
2023/07/27 12:03:13;;;;;;;2.08;1.90;;;;;;;;;;5027959;28;20293;-67
2023/07/27 12:05:41;;;;;;;1.98;1.70;;;;;;;;;;5029421;28;20685;-66
2023/07/27 12:08:07;;;;;;;2.85;1.98;;;;;;;;;;5029639;28;20211;-67
2023/07/27 12:10:34;;;;;;;1.70;1.60;;;;;;;;;;5029404;28;20298;-66
2023/07/27 12:13:01;;;;;;;5.97;1.60;;;;;;;;;;5029661;28;20277;-67
2023/07/27 12:15:29;;;;;;;2.95;1.73;;;;;;;25.04;nan;94814.16;5029752;28;20315;-66
2023/07/27 12:17:56;;;;;;;2.33;1.52;;;;;;;;;;5028876;28;20207;-67
2023/07/27 12:20:22;;;;;;;2.00;1.90;;;;;;;;;;5029296;28;20231;-66
2023/07/27 12:22:50;;;;;;;1.60;1.50;;;;;;;;;;5028334;28;20238;-66
2023/07/27 12:25:17;;;;;;;1.85;1.75;;;;;;;;;;5029653;28;20344;-67
2023/07/27 12:27:43;;;;;;;4.20;1.60;;;;;;;;;;5027696;28;20207;-65
2023/07/27 12:30:11;;;;;;;4.43;1.83;;;;;;;;;;5029035;28;20223;-66
2023/07/27 12:32:37;;;;;;;3.53;1.90;;;;;;;;;;5028671;28;20258;-67
2023/07/27 12:35:04;;;;;;;4.38;1.88;;;;;;;;;;5029360;28;20231;-67
2023/07/27 12:37:31;;;;;;;1.90;1.80;;;;;;;;;;5026472;28;20235;-65
2023/07/27 12:39:59;;;;;;;2.95;1.83;;;;;;;;;;5028383;28;20204;-66
2023/07/27 12:42:25;;;;;;;5.75;1.70;;;;;;;;;;5027709;28;20282;-66
2023/07/27 12:44:52;;;;;;;3.42;1.65;;;;;;;;;;5029300;28;20252;-66
2023/07/27 12:47:19;;;;;;;3.63;1.70;;;;;;;;;;5028871;28;20211;-67
2023/07/27 12:49:45;;;;;;;3.22;2.00;;;;;;;;;;5028389;28;20196;-67
2023/07/27 12:52:11;;;;;;;3.60;1.50;;;;;;;;;;5028385;28;20308;-64
2023/07/27 12:54:39;;;;;;;2.05;1.52;;;;;;;;;;5028606;28;20234;-66
2023/07/27 12:57:07;;;;;;;1.50;1.40;;;;;;;;;;5028023;28;20261;-68
2023/07/27 12:59:35;;;;;;;5.30;2.00;;;;;;;;;;5029016;28;20303;-67
2023/07/27 13:02:01;;;;;;;4.00;2.03;;;;;;;;;;5027911;28;20222;-67
2023/07/27 13:04:28;;;;;;;1.83;1.73;;;;;;;;;;5028940;28;20235;-67
2023/07/27 13:06:54;;;;;;;3.15;2.00;;;;;;;;;;5027756;28;20571;-67
2023/07/27 13:09:21;;;;;;;3.67;1.70;;;;;;;;;;5029041;28;20199;-66
2023/07/27 13:11:47;;;;;;;4.28;1.60;;;;;;;;;;5028015;28;20200;-66
2023/07/27 13:14:17;;;;;;;1.77;1.60;;;;;;;;;;5028495;28;20286;-66
2023/07/27 13:16:44;;;;;;;1.52;1.42;;;;;;;;;;5028457;28;20216;-67
2023/07/27 13:19:10;;;;;;;1.55;1.55;;;;;;;;;;5027701;28;20199;-67
2023/07/27 13:21:36;;;;;;;1.58;1.52;;;;;;;;;;5027971;28;20211;-70
2023/07/27 13:24:03;;;;;;;1.60;1.50;;;;;;;;;;5027605;28;20199;-67
2023/07/27 13:26:30;;;;;;;5.05;1.92;;;;;;;;;;5027934;28;20249;-67
2023/07/27 13:28:56;;;;;;;2.10;1.95;;;;;;;;;;5027979;28;20265;-68
2023/07/27 13:31:24;;;;;;;2.25;1.90;;;;;;;;;;5026522;28;20211;-68
2023/07/27 13:33:50;;;;;;;1.85;1.75;;;;;;;;;;5027504;28;20314;-68
2023/07/27 13:36:17;;;;;;;4.57;1.70;;;;;;;;;;5026786;28;20224;-69
2023/07/27 13:38:44;;;;;;;4.10;1.83;;;;;;;;;;5026058;28;20200;-68
2023/07/27 13:41:10;;;;;;;3.42;1.85;;;;;;;;;;5028446;28;20199;-70
2023/07/27 13:43:36;;;;;;;1.77;1.67;;;;;;;;;;5027661;28;20196;-70
2023/07/27 13:46:03;;;;;;;2.30;1.83;;;;;;;;;;5026708;28;20196;-70
2023/07/27 13:48:31;;;;;;;1.90;1.80;;;;;;;;;;5027530;28;20207;-68
2023/07/27 13:50:57;;;;;;;3.63;1.80;;;;;;;;;;5028077;28;20681;-68
2023/07/27 13:53:24;;;;;;;3.67;1.52;;;;;;;;;;5027208;28;20277;-69
2023/07/27 13:55:52;;;;;;;2.05;1.92;;;;;;;;;;5027861;28;20223;-67
2023/07/27 13:58:19;;;;;;;1.60;1.50;;;;;;;;;;5026751;28;20200;-69
2023/07/27 14:00:45;;;;;;;2.55;2.35;;;;;;;;;;5028252;28;20254;-68
2023/07/27 14:03:13;;;;;;;2.10;1.55;;;;;;;;;;5026674;28;20373;-68
2023/07/27 14:05:41;;;;;;;10.15;1.70;;;;;;;;;;5027659;28;20192;-68